Time;durP1;ratioP1;P1;durP2;ratioP2;P2;SDS_P1;SDS_P2;PMS_P1;PMS_P2;Temp;Humidity;BMP_temperature;BMP_pressure;BME280_temperature;BME280_humidity;BME280_pressure;Samples;Min_cycle;Max_cycle;Signal;HPM_P1;HPM_P2
2022/04/10 00:00:42;;;;;;;1.83;0.85;;;21.70;37.60;;;;;;4993965;28;20034;-62
2022/04/10 00:03:07;;;;;;;2.38;0.93;;;21.70;37.70;;;;;;4998160;28;20088;-62
2022/04/10 00:05:34;;;;;;;4.20;1.10;;;21.70;37.80;;;;;;4993564;28;20083;-62
2022/04/10 00:07:59;;;;;;;1.25;0.70;;;21.70;37.70;;;;;;4993772;28;20057;-62
2022/04/10 00:10:25;;;;;;;2.78;1.00;;;21.70;37.70;;;;;;4998032;28;20044;-62
2022/04/10 00:12:50;;;;;;;2.30;1.00;;;21.60;37.70;;;;;;4996806;28;20614;-63
2022/04/10 00:15:16;;;;;;;1.35;0.73;;;21.60;37.70;;;;;;4994317;28;20081;-61
2022/04/10 00:17:42;;;;;;;2.72;0.90;;;21.60;37.80;;;;;;4992577;28;20176;-63
2022/04/10 00:20:11;;;;;;;1.92;0.85;;;21.60;37.70;;;;;;4996486;28;20100;-63
2022/04/10 00:22:45;;;;;;;2.85;1.10;;;21.60;37.80;;;;;;4995248;28;20058;-61
2022/04/10 00:25:13;;;;;;;1.60;0.80;;;21.50;37.60;;;;;;4995358;28;20042;-62
2022/04/10 00:27:40;;;;;;;2.35;0.93;;;21.50;37.70;;;;;;4979579;28;20495;-62
2022/04/10 00:30:07;;;;;;;2.17;0.93;;;21.50;37.70;;;;;;4996195;28;20042;-62
2022/04/10 00:32:32;;;;;;;2.47;1.00;;;21.50;37.70;;;;;;4993458;28;20111;-61
2022/04/10 00:34:58;;;;;;;2.00;1.00;;;21.50;37.80;;;;;;4997984;28;20042;-61
2022/04/10 00:37:24;;;;;;;2.35;1.00;;;21.40;37.70;;;;;;4995840;28;20054;-63
2022/04/10 00:39:50;;;;;;;1.52;0.77;;;21.40;37.70;;;;;;4993666;28;20037;-63
2022/04/10 00:42:16;;;;;;;1.55;0.90;;;21.40;37.80;;;;;;4978819;28;20509;-61
2022/04/10 00:44:41;;;;;;;1.35;0.80;;;21.40;37.80;;;;;;4995405;28;20096;-64
2022/04/10 00:47:10;;;;;;;2.22;0.90;;;21.40;37.90;;;;;;4989137;28;20486;-63
2022/04/10 00:49:36;;;;;;;8.85;0.95;;;21.40;37.90;;;;;;4993596;28;20033;-62
2022/04/10 00:52:04;;;;;;;2.70;1.10;;;21.40;37.80;;;;;;4994160;28;20121;-62
2022/04/10 00:54:30;;;;;;;2.60;1.02;;;21.40;37.80;;;;;;4993524;28;20046;-66
2022/04/10 00:56:58;;;;;;;2.90;1.08;;;21.40;37.80;;;;;;4992263;28;20096;-66
2022/04/10 00:59:25;;;;;;;3.90;1.10;;;21.30;37.90;;;;;;4995217;28;20137;-63
2022/04/10 01:01:51;;;;;;;3.20;0.95;;;21.30;37.80;;;;;;4993170;28;20521;-62
2022/04/10 01:04:16;;;;;;;2.30;0.80;;;21.30;37.90;;;;;;4995699;28;20155;-62
2022/04/10 01:06:54;;;;;;;3.67;0.88;;;21.30;37.80;;;;;;4975936;28;20457;-63
2022/04/10 01:09:20;;;;;;;2.17;0.88;;;21.30;37.80;;;;;;4992296;28;20046;-61
2022/04/10 01:11:46;;;;;;;2.35;0.98;;;21.30;37.90;;;;;;4976026;28;20050;-63
2022/04/10 01:14:13;;;;;;;2.45;0.93;;;21.20;37.90;;;;;;4994034;28;20129;-63
2022/04/10 01:16:39;;;;;;;2.35;0.90;;;21.20;37.90;;;;;;4997252;28;20046;-62
2022/04/10 01:19:06;;;;;;;2.10;1.10;;;21.20;37.90;;;;;;5008100;28;20050;-63
2022/04/10 01:21:36;;;;;;;2.22;1.00;;;21.20;37.90;;;;;;4992199;28;20145;-64
2022/04/10 01:24:02;;;;;;;2.20;0.80;;;21.20;37.90;;;;;;4976781;28;20455;-63
2022/04/10 01:26:28;;;;;;;2.40;1.25;;;21.10;37.80;;;;;;4996313;28;20088;-62
2022/04/10 01:29:07;;;;;;;2.78;0.98;;;21.10;37.80;;;;;;4993409;28;20081;-62
2022/04/10 01:31:35;;;;;;;1.77;0.75;;;21.10;37.90;;;;;;4994536;28;20565;-63
2022/04/10 01:34:06;;;;;;;2.40;0.93;;;21.10;38.00;;;;;;4979088;28;20500;-63
2022/04/10 01:36:32;;;;;;;2.80;0.93;;;21.10;38.00;;;;;;4993158;28;20046;-62
2022/04/10 01:38:59;;;;;;;2.05;0.90;;;21.10;38.00;;;;;;4984870;28;20450;-62
2022/04/10 01:41:26;;;;;;;2.85;1.00;;;21.00;38.00;;;;;;4995456;28;20110;-63
2022/04/10 01:43:54;;;;;;;2.67;0.80;;;21.00;38.00;;;;;;5001260;28;20077;-62
2022/04/10 01:46:21;;;;;;;2.47;1.00;;;21.00;38.00;;;;;;4994365;28;20730;-62
2022/04/10 01:48:47;;;;;;;1.73;1.00;;;21.00;38.00;;;;;;4993648;28;20394;-65
2022/04/10 01:51:13;;;;;;;3.83;0.95;;;21.00;38.00;;;;;;4992649;28;20064;-63
2022/04/10 01:53:39;;;;;;;1.70;0.75;;;21.00;38.00;;;;;;4992079;28;20053;-64
2022/04/10 01:56:06;;;;;;;1.45;0.82;;;20.90;37.90;;;;;;4995252;28;20038;-61
2022/04/10 01:58:34;;;;;;;1.83;0.88;;;20.90;37.90;;;;;;4977404;28;20125;-62
2022/04/10 02:01:05;;;;;;;2.50;1.08;;;20.90;37.90;;;;;;4987381;28;20112;-61
2022/04/10 02:03:31;;;;;;;2.15;0.90;;;20.90;37.90;;;;;;4990324;28;20053;-61
2022/04/10 02:05:57;;;;;;;3.67;1.20;;;20.90;37.90;;;;;;4989424;28;20104;-64
2022/04/10 02:08:23;;;;;;;2.10;0.93;;;20.90;37.80;;;;;;4991242;28;20213;-63
2022/04/10 02:10:49;;;;;;;1.85;0.90;;;20.90;37.80;;;;;;4992765;28;20156;-61
2022/04/10 02:13:14;;;;;;;1.83;0.90;;;20.90;37.90;;;;;;4993186;28;20122;-61
2022/04/10 02:15:40;;;;;;;1.23;0.70;;;20.80;37.90;;;;;;4974164;28;20106;-61
2022/04/10 02:18:06;;;;;;;1.45;1.00;;;20.80;37.80;;;;;;4992516;28;20130;-63
2022/04/10 02:20:32;;;;;;;2.47;1.00;;;20.80;37.90;;;;;;4989853;28;20646;-62
2022/04/10 02:22:59;;;;;;;2.08;1.05;;;20.80;37.80;;;;;;4990499;28;20060;-66
2022/04/10 02:25:25;;;;;;;3.28;1.08;;;20.80;37.80;;;;;;4994683;28;20049;-67
2022/04/10 02:27:50;;;;;;;2.58;1.00;;;20.80;37.90;;;;;;4993926;28;20042;-62
2022/04/10 02:30:18;;;;;;;2.33;0.98;;;20.80;37.90;;;;;;4994320;28;20111;-63
2022/04/10 02:32:44;;;;;;;2.20;0.98;;;20.80;37.90;;;;;;4994215;28;20589;-62
2022/04/10 02:35:10;;;;;;;1.75;0.80;;;20.80;37.90;;;;;;4976182;28;20062;-61
2022/04/10 02:37:35;;;;;;;1.67;0.85;;;20.80;37.90;;;;;;4992564;28;20049;-65
2022/04/10 02:40:03;;;;;;;2.80;1.30;;;20.70;37.80;;;;;;4994211;28;20046;-62
2022/04/10 02:42:31;;;;;;;2.60;0.95;;;20.70;37.80;;;;;;4993116;28;20383;-61
2022/04/10 02:44:56;;;;;;;2.80;0.82;;;20.70;37.80;;;;;;4992313;28;20062;-65
2022/04/10 02:47:22;;;;;;;1.83;0.60;;;20.70;37.90;;;;;;4994659;28;20045;-62
2022/04/10 02:49:47;;;;;;;3.88;1.00;;;20.70;37.90;;;;;;4991616;28;20092;-62
2022/04/10 02:52:13;;;;;;;2.40;0.70;;;20.70;37.90;;;;;;4990005;28;20038;-62
2022/04/10 02:54:39;;;;;;;1.45;1.02;;;20.60;37.90;;;;;;4993974;28;20050;-65
2022/04/10 02:57:04;;;;;;;2.47;1.00;;;20.60;37.90;;;;;;4993549;28;20141;-62
2022/04/10 02:59:30;;;;;;;2.03;0.80;;;20.60;37.90;;;;;;4994021;28;20115;-63
2022/04/10 03:01:56;;;;;;;2.22;0.98;;;20.60;37.90;;;;;;4975521;28;20043;-66
2022/04/10 03:04:21;;;;;;;1.90;0.80;;;20.60;37.90;;;;;;4993156;28;20555;-62
2022/04/10 03:06:47;;;;;;;2.50;0.60;;;20.60;37.90;;;;;;4990037;28;20042;-68
2022/04/10 03:09:12;;;;;;;2.17;0.90;;;20.60;37.90;;;;;;4994203;28;20390;-65
2022/04/10 03:11:38;;;;;;;2.42;0.93;;;20.50;37.80;;;;;;4991049;28;20042;-66
2022/04/10 03:14:03;;;;;;;1.55;0.90;;;20.50;37.80;;;;;;4992863;28;20057;-63
2022/04/10 03:16:29;;;;;;;2.92;1.10;;;20.50;37.90;;;;;;4991518;28;20495;-62
2022/04/10 03:18:55;;;;;;;1.85;0.75;;;20.50;37.80;;;;;;4976543;28;20093;-63
2022/04/10 03:21:20;;;;;;;1.92;0.95;;;20.50;37.90;;;;;;4992257;28;20047;-63
2022/04/10 03:23:46;;;;;;;1.88;0.90;;;20.50;37.90;;;;;;4993240;28;20148;-61
2022/04/10 03:26:12;;;;;;;3.20;1.00;;;20.50;37.80;;;;;;4991302;28;20053;-63
2022/04/10 03:28:37;;;;;;;3.05;1.05;;;20.50;37.80;;;;;;4991958;28;20053;-64
2022/04/10 03:31:03;;;;;;;2.95;0.88;;;20.50;37.90;;;;;;4998892;28;20069;-61
2022/04/10 03:33:29;;;;;;;3.35;1.02;;;20.50;37.80;;;;;;4998102;28;20053;-62
2022/04/10 03:35:55;;;;;;;2.40;1.00;;;20.50;37.80;;;;;;4977117;28;20046;-63
2022/04/10 03:38:21;;;;;;;2.05;0.85;;;20.40;37.80;;;;;;4992521;28;20060;-61
2022/04/10 03:40:47;;;;;;;3.53;1.17;;;20.40;37.80;;;;;;4993553;28;20058;-63
2022/04/10 03:43:13;;;;;;;2.25;0.90;;;20.40;37.80;;;;;;4995086;28;20061;-62
2022/04/10 03:45:39;;;;;;;3.05;0.95;;;20.40;37.80;;;;;;4977821;28;20050;-62
2022/04/10 03:48:06;;;;;;;3.05;0.75;;;20.40;37.80;;;;;;4995421;28;20054;-63
2022/04/10 03:50:33;;;;;;;2.42;0.80;;;20.40;37.80;;;;;;4979600;28;20050;-64
2022/04/10 03:53:00;;;;;;;3.15;1.02;;;20.40;37.90;;;;;;4995671;28;20043;-63
2022/04/10 03:55:26;;;;;;;1.58;0.80;;;20.40;37.80;;;;;;5011043;28;20057;-64
2022/04/10 03:57:51;;;;;;;3.28;1.15;;;20.40;37.80;;;;;;4995117;28;20077;-62
2022/04/10 04:00:18;;;;;;;4.95;0.90;;;20.40;37.90;;;;;;4992892;28;20050;-63
2022/04/10 04:02:45;;;;;;;1.85;0.80;;;20.30;37.80;;;;;;4974927;28;20506;-64
2022/04/10 04:05:10;;;;;;;2.30;1.00;;;20.40;37.90;;;;;;4977471;28;20069;-65
2022/04/10 04:07:36;;;;;;;2.08;0.80;;;20.40;37.90;;;;;;4990703;28;20046;-65
2022/04/10 04:10:06;;;;;;;3.50;0.88;;;20.30;38.50;;;;;;4996708;28;20081;-61
2022/04/10 04:12:34;;;;;;;2.45;0.90;;;20.40;37.80;;;;;;4995310;28;20477;-63
2022/04/10 04:15:00;;;;;;;1.98;0.73;;;20.30;38.10;;;;;;4993956;28;20054;-64
2022/04/10 04:17:26;;;;;;;2.65;0.98;;;20.30;37.80;;;;;;4993694;28;20068;-62
2022/04/10 04:19:51;;;;;;;2.50;0.80;;;20.30;37.70;;;;;;4990778;28;20088;-63
2022/04/10 04:22:18;;;;;;;2.03;1.00;;;20.20;37.70;;;;;;4991936;28;20054;-63
2022/04/10 04:24:44;;;;;;;4.47;0.90;;;20.20;37.80;;;;;;4995135;28;20393;-62
2022/04/10 04:27:10;;;;;;;2.22;0.73;;;20.20;37.90;;;;;;4980130;28;20061;-69
2022/04/10 04:29:36;;;;;;;1.60;0.63;;;20.20;38.00;;;;;;4994903;28;20128;-66
2022/04/10 04:32:02;;;;;;;1.23;0.70;;;20.20;38.10;;;;;;4995261;28;20145;-62
2022/04/10 04:34:28;;;;;;;4.07;0.77;;;20.10;38.10;;;;;;4998369;28;20451;-65
2022/04/10 04:36:53;;;;;;;3.58;0.88;;;20.10;38.20;;;;;;4995489;28;20057;-62
2022/04/10 04:39:19;;;;;;;2.85;1.17;;;20.10;38.20;;;;;;4977946;28;20552;-62
2022/04/10 04:41:45;;;;;;;4.15;0.88;;;20.00;38.40;;;;;;4981460;28;20046;-63
2022/04/10 04:44:11;;;;;;;2.42;0.90;;;20.00;38.50;;;;;;4976703;28;20402;-63
2022/04/10 04:46:36;;;;;;;1.98;0.75;;;20.10;38.50;;;;;;4991381;28;20053;-64
2022/04/10 04:49:03;;;;;;;1.17;0.60;;;20.00;38.50;;;;;;4993825;28;20100;-62
2022/04/10 04:51:29;;;;;;;2.03;0.95;;;20.00;38.50;;;;;;4994671;28;20439;-62
2022/04/10 04:53:55;;;;;;;1.92;0.70;;;20.00;38.50;;;;;;4992398;28;20117;-62
2022/04/10 04:56:21;;;;;;;1.88;0.80;;;20.00;38.50;;;;;;4994172;28;20441;-62
2022/04/10 04:58:50;;;;;;;1.52;0.80;;;20.00;38.50;;;;;;4992776;28;20661;-63
2022/04/10 05:01:15;;;;;;;1.30;0.60;;;20.00;38.40;;;;;;4995305;28;20037;-62
2022/04/10 05:03:41;;;;;;;2.05;1.00;;;20.00;38.50;;;;;;4992900;28;20053;-62
2022/04/10 05:06:06;;;;;;;2.78;0.98;;;20.00;38.50;;;;;;4994715;28;20116;-62
2022/04/10 05:08:32;;;;;;;1.45;0.60;;;20.00;38.40;;;;;;4993321;28;20116;-64
2022/04/10 05:10:59;;;;;;;1.48;0.68;;;19.90;38.40;;;;;;4976832;28;20074;-65
2022/04/10 05:13:25;;;;;;;2.88;0.70;;;19.90;38.40;;;;;;4998459;28;20111;-63
2022/04/10 05:15:51;;;;;;;1.00;0.60;;;19.90;38.40;;;;;;4977099;28;20422;-62
2022/04/10 05:18:19;;;;;;;1.33;0.80;;;19.90;38.40;;;;;;4992615;28;20128;-62
2022/04/10 05:20:45;;;;;;;1.30;0.60;;;19.90;38.40;;;;;;4996893;28;20045;-63
2022/04/10 05:23:11;;;;;;;3.22;0.70;;;19.90;38.40;;;;;;4995914;28;20058;-64
2022/04/10 05:25:37;;;;;;;1.67;0.75;;;19.90;38.30;;;;;;4993232;28;20061;-64
2022/04/10 05:28:03;;;;;;;1.13;0.60;;;19.90;38.30;;;;;;4994809;28;20125;-64
2022/04/10 05:30:29;;;;;;;1.63;0.68;;;19.90;38.30;;;;;;4993000;28;20057;-63
2022/04/10 05:32:54;;;;;;;0.90;0.40;;;19.90;38.30;;;;;;4994309;28;20045;-62
2022/04/10 05:35:20;;;;;;;1.67;0.80;;;20.00;38.30;;;;;;4994260;28;20050;-64
2022/04/10 05:37:45;;;;;;;0.93;0.60;;;20.00;38.30;;;;;;4994342;28;20597;-62
2022/04/10 05:40:11;;;;;;;1.10;0.55;;;20.00;38.30;;;;;;4995567;28;20072;-62
2022/04/10 05:42:38;;;;;;;0.98;0.68;;;20.00;38.30;;;;;;4992225;28;20054;-63
2022/04/10 05:45:05;;;;;;;1.30;0.60;;;20.00;39.00;;;;;;4994482;28;20101;-64
2022/04/10 05:47:31;;;;;;;1.65;0.50;;;20.00;38.30;;;;;;4994325;28;20140;-63
2022/04/10 05:49:56;;;;;;;0.68;0.43;;;20.00;38.30;;;;;;4992027;28;20573;-63
2022/04/10 05:52:23;;;;;;;1.20;0.40;;;20.00;38.20;;;;;;4994863;28;20608;-67
2022/04/10 05:54:48;;;;;;;1.35;0.60;;;20.10;38.20;;;;;;4995676;28;20050;-64
2022/04/10 05:57:14;;;;;;;1.30;0.50;;;20.10;38.30;;;;;;4990616;28;20100;-63
2022/04/10 05:59:39;;;;;;;1.90;0.57;;;20.10;38.20;;;;;;4994315;28;20082;-64
2022/04/10 06:02:05;;;;;;;1.00;0.50;;;20.10;38.20;;;;;;4994990;28;20049;-63
2022/04/10 06:04:31;;;;;;;1.60;0.50;;;20.10;38.20;;;;;;4995623;28;20061;-65
2022/04/10 06:06:57;;;;;;;0.75;0.40;;;20.10;38.90;;;;;;4992371;28;20046;-64
2022/04/10 06:09:23;;;;;;;0.50;0.50;;;20.20;38.30;;;;;;4991886;28;20058;-63
2022/04/10 06:11:48;;;;;;;1.20;0.70;;;20.20;38.30;;;;;;4979542;28;20054;-63
2022/04/10 06:14:14;;;;;;;1.65;0.60;;;20.20;38.20;;;;;;4976858;28;20714;-64
2022/04/10 06:16:40;;;;;;;1.10;0.50;;;20.20;38.30;;;;;;4992036;28;20138;-63
2022/04/10 06:19:05;;;;;;;1.25;0.60;;;20.20;38.30;;;;;;4993393;28;20050;-66
2022/04/10 06:21:31;;;;;;;1.30;0.50;;;20.20;38.30;;;;;;4976959;28;20534;-65
2022/04/10 06:23:56;;;;;;;2.28;0.70;;;20.20;38.30;;;;;;4992694;28;20084;-64
2022/04/10 06:26:22;;;;;;;1.33;0.70;;;20.20;38.30;;;;;;4995384;28;20049;-62
2022/04/10 06:28:48;;;;;;;0.95;0.40;;;20.20;38.30;;;;;;4991116;28;20403;-62
2022/04/10 06:31:13;;;;;;;0.75;0.38;;;20.20;38.30;;;;;;4990821;28;20046;-63
2022/04/10 06:33:39;;;;;;;0.50;0.50;;;20.20;38.30;;;;;;4992068;28;20218;-65
2022/04/10 06:36:04;;;;;;;1.02;0.55;;;20.20;38.40;;;;;;4992970;28;20061;-65
2022/04/10 06:38:30;;;;;;;1.58;0.50;;;20.30;38.50;;;;;;4993147;28;20545;-63
2022/04/10 06:40:55;;;;;;;0.90;0.45;;;20.30;38.40;;;;;;4991421;28;20110;-63
2022/04/10 06:43:21;;;;;;;0.77;0.40;;;20.30;38.40;;;;;;4994600;28;20136;-63
2022/04/10 06:45:47;;;;;;;0.90;0.30;;;20.30;38.40;;;;;;4992003;28;20748;-64
2022/04/10 06:48:13;;;;;;;0.95;0.40;;;20.30;38.40;;;;;;4992825;28;20101;-63
2022/04/10 06:50:39;;;;;;;1.67;0.50;;;20.30;38.40;;;;;;4991475;28;20038;-63
2022/04/10 06:53:05;;;;;;;1.48;0.50;;;20.30;38.40;;;;;;4989986;28;20065;-64
2022/04/10 06:55:31;;;;;;;0.98;0.50;;;20.30;38.50;;;;;;4991277;28;20129;-62
2022/04/10 06:57:57;;;;;;;1.58;0.55;;;20.30;38.60;;;;;;4993235;28;20050;-64
2022/04/10 07:00:23;;;;;;;1.20;0.32;;;20.30;38.70;;;;;;4991672;28;20040;-63
2022/04/10 07:02:48;;;;;;;1.25;0.52;;;20.40;38.80;;;;;;4990192;28;20394;-63
2022/04/10 07:05:14;;;;;;;1.77;0.47;;;20.40;38.80;;;;;;4996338;28;20101;-63
2022/04/10 07:07:40;;;;;;;1.05;0.30;;;20.40;38.80;;;;;;4997606;28;20104;-63
2022/04/10 07:10:06;;;;;;;1.65;0.40;;;20.40;38.80;;;;;;4994180;28;20399;-63
2022/04/10 07:12:31;;;;;;;1.67;0.43;;;20.40;38.80;;;;;;4997838;28;20074;-64
2022/04/10 07:15:01;;;;;;;0.52;0.40;;;20.40;38.90;;;;;;4996076;28;20128;-64
2022/04/10 07:17:27;;;;;;;1.85;0.63;;;20.50;38.90;;;;;;4994744;28;20714;-65
2022/04/10 07:19:53;;;;;;;0.55;0.40;;;20.50;39.00;;;;;;4997019;28;20050;-63
2022/04/10 07:25:03;;;;;;;1.83;0.50;;;20.50;38.90;;;;;;4995329;28;20050;-62
2022/04/10 07:27:29;;;;;;;1.15;0.40;;;20.50;38.90;;;;;;4996979;28;20657;-61
2022/04/10 07:29:55;;;;;;;2.60;0.68;;;20.50;39.70;;;;;;4994277;28;20417;-65
2022/04/10 07:32:20;;;;;;;1.70;0.50;;;20.50;39.00;;;;;;4996400;28;20038;-64
2022/04/10 07:34:46;;;;;;;2.97;0.60;;;20.50;39.00;;;;;;4996967;28;20096;-62
2022/04/10 07:37:11;;;;;;;1.60;0.52;;;20.60;39.10;;;;;;4993223;28;20045;-63
2022/04/10 07:39:37;;;;;;;1.55;0.40;;;20.60;39.20;;;;;;4993766;28;20140;-70
2022/04/10 07:42:03;;;;;;;0.90;0.70;;;20.60;39.20;;;;;;4996216;28;20058;-65
2022/04/10 07:44:29;;;;;;;0.75;0.45;;;20.60;39.20;;;;;;4997408;28;20042;-63
2022/04/10 07:49:38;;;;;;;1.50;0.50;;;20.60;39.20;;;;;;4997885;28;20053;-65
2022/04/10 07:52:04;;;;;;;1.20;0.40;;;20.70;39.30;;;;;;4997503;28;20038;-62
2022/04/10 07:54:30;;;;;;;1.15;0.70;;;20.70;39.20;;;;;;4996250;28;20135;-63
2022/04/10 07:56:55;;;;;;;0.88;0.52;;;20.70;39.10;;;;;;4995506;28;20046;-65
2022/04/10 07:59:23;;;;;;;0.80;0.70;;;20.70;39.10;;;;;;4993994;28;20097;-62
2022/04/10 08:01:49;;;;;;;3.70;0.80;;;20.70;39.20;;;;;;5000914;28;20679;-61
2022/04/10 08:04:14;;;;;;;1.73;0.47;;;20.70;39.20;;;;;;4972614;28;20137;-61
2022/04/10 08:06:40;;;;;;;1.02;0.50;;;20.70;39.30;;;;;;4994049;28;20100;-62
2022/04/10 08:09:06;;;;;;;2.28;0.57;;;20.70;39.60;;;;;;4995619;28;20054;-62
2022/04/10 08:11:31;;;;;;;3.00;1.10;;;20.70;39.80;;;;;;4995796;28;20510;-61
2022/04/10 08:13:57;;;;;;;2.10;0.40;;;20.80;40.80;;;;;;4992715;28;20042;-61
2022/04/10 08:16:22;;;;;;;2.83;0.60;;;20.80;40.20;;;;;;4985311;28;20061;-63
2022/04/10 08:18:48;;;;;;;1.10;0.50;;;20.80;40.20;;;;;;4995932;28;20038;-63
2022/04/10 08:21:14;;;;;;;4.43;0.95;;;20.80;40.20;;;;;;4978053;28;20087;-62
2022/04/10 08:23:39;;;;;;;2.97;0.70;;;20.80;40.20;;;;;;4993774;28;20041;-64
2022/04/10 08:26:05;;;;;;;1.45;0.63;;;20.80;40.20;;;;;;5008433;28;20042;-65
2022/04/10 08:28:32;;;;;;;0.82;0.50;;;20.80;40.20;;;;;;4995232;28;20059;-61
2022/04/10 08:30:58;;;;;;;1.98;0.70;;;20.80;40.20;;;;;;4994012;28;20042;-66
2022/04/10 08:33:23;;;;;;;1.33;0.65;;;20.80;40.30;;;;;;4977870;28;20060;-58
2022/04/10 08:35:49;;;;;;;1.70;0.65;;;20.90;40.40;;;;;;5001530;28;20085;-56
2022/04/10 08:38:15;;;;;;;1.38;0.60;;;20.90;40.30;;;;;;4994344;28;20048;-61
2022/04/10 08:40:40;;;;;;;1.77;0.70;;;20.90;40.40;;;;;;4996044;28;20069;-62
2022/04/10 08:43:07;;;;;;;2.90;0.88;;;20.90;40.40;;;;;;4995016;28;20076;-61
2022/04/10 08:45:33;;;;;;;2.00;0.60;;;20.90;40.40;;;;;;4995596;28;20073;-62
2022/04/10 08:47:59;;;;;;;2.35;0.80;;;20.90;40.50;;;;;;4991870;28;20498;-60
2022/04/10 08:50:26;;;;;;;1.05;0.70;;;21.00;40.80;;;;;;4993029;28;20105;-64
2022/04/10 08:52:53;;;;;;;3.75;0.90;;;21.00;40.80;;;;;;4976967;28;20038;-61
2022/04/10 08:55:19;;;;;;;8.07;1.25;;;21.00;40.80;;;;;;4991421;28;20297;-62
2022/04/10 08:57:45;;;;;;;4.95;0.90;;;21.00;41.00;;;;;;4975762;28;20046;-62
2022/04/10 09:00:11;;;;;;;4.07;0.80;;;21.10;41.40;;;;;;4993645;28;20372;-61
2022/04/10 09:02:51;;;;;;;3.70;1.45;;;21.10;42.00;;;;;;4995157;28;20113;-60
2022/04/10 09:05:24;;;;;;;4.45;1.00;;;21.10;42.50;;;;;;4992830;28;20537;-61
2022/04/10 09:08:08;;;;;;;3.22;0.90;;;21.20;42.60;;;;;;4993821;28;20069;-61
2022/04/10 09:11:03;;;;;;;2.78;1.05;;;21.20;42.70;;;;;;4995987;28;20041;-61
2022/04/10 09:13:34;;;;;;;2.85;1.00;;;21.20;42.80;;;;;;4993835;28;20042;-60
2022/04/10 09:16:18;;;;;;;3.13;1.00;;;21.20;42.50;;;;;;4991184;28;20074;-60
2022/04/10 09:18:47;;;;;;;3.20;0.93;;;21.20;42.70;;;;;;4994039;28;20490;-60
2022/04/10 09:21:14;;;;;;;2.40;0.85;;;21.30;42.80;;;;;;4993689;28;20046;-61
2022/04/10 09:23:39;;;;;;;4.63;0.90;;;21.30;42.60;;;;;;4992063;28;20092;-60
2022/04/10 09:26:05;;;;;;;3.15;1.10;;;21.30;42.70;;;;;;4994898;28;20497;-60
2022/04/10 09:28:45;;;;;;;2.72;1.20;;;21.30;42.60;;;;;;4992539;28;20777;-60
2022/04/10 09:31:30;;;;;;;2.58;1.15;;;21.30;42.70;;;;;;4992680;28;20041;-61
2022/04/10 09:34:00;;;;;;;2.67;1.10;;;21.30;42.60;;;;;;4994015;28;20049;-60
2022/04/10 09:36:36;;;;;;;4.43;1.10;;;21.30;42.30;;;;;;4994038;28;20121;-63
2022/04/10 09:39:05;;;;;;;3.95;1.10;;;21.30;42.30;;;;;;4994027;28;20635;-61
2022/04/10 09:41:30;;;;;;;3.65;1.00;;;21.30;42.30;;;;;;4994296;28;20046;-61
2022/04/10 09:44:09;;;;;;;5.32;1.60;;;21.30;42.40;;;;;;4990709;28;20120;-65
2022/04/10 09:46:34;;;;;;;3.03;1.20;;;21.30;42.20;;;;;;4992703;28;20066;-61
2022/04/10 09:49:03;;;;;;;4.18;1.42;;;21.30;42.20;;;;;;4993594;28;20127;-62
2022/04/10 09:51:29;;;;;;;4.75;1.33;;;21.30;42.20;;;;;;4996291;28;20099;-61
2022/04/10 09:54:05;;;;;;;3.65;1.50;;;21.40;42.40;;;;;;5008253;28;21680;-61
2022/04/10 09:56:31;;;;;;;2.97;1.20;;;21.30;42.20;;;;;;4991643;28;20591;-61
2022/04/10 09:59:01;;;;;;;2.38;1.05;;;21.30;42.30;;;;;;4992414;28;20106;-61
2022/04/10 10:01:28;;;;;;;4.50;1.00;;;21.30;42.30;;;;;;4994423;28;20044;-61
2022/04/10 10:03:55;;;;;;;3.30;1.10;;;21.40;42.40;;;;;;4993890;28;20169;-59
2022/04/10 10:06:21;;;;;;;5.40;1.52;;;21.30;42.30;;;;;;4991005;28;20056;-59
2022/04/10 10:08:48;;;;;;;4.53;1.20;;;21.40;42.50;;;;;;4991827;28;20125;-63
2022/04/10 10:11:14;;;;;;;2.78;1.33;;;21.40;42.80;;;;;;4995638;28;20125;-60
2022/04/10 10:13:40;;;;;;;2.33;1.20;;;21.40;42.90;;;;;;4993936;28;20180;-61
2022/04/10 10:16:07;;;;;;;5.38;1.38;;;21.40;42.90;;;;;;4994632;28;20047;-59
2022/04/10 10:18:33;;;;;;;4.38;1.35;;;21.40;42.90;;;;;;4998246;28;20104;-59
2022/04/10 10:20:59;;;;;;;3.30;1.23;;;21.40;42.80;;;;;;4992363;28;20050;-60
2022/04/10 10:23:26;;;;;;;2.47;1.15;;;21.40;42.80;;;;;;4994735;28;20053;-56
2022/04/10 10:25:55;;;;;;;3.70;1.20;;;21.40;42.80;;;;;;4989399;28;20058;-55
2022/04/10 10:28:44;;;;;;;2.92;1.27;;;21.40;42.50;;;;;;4994479;28;20054;-56
2022/04/10 10:31:51;;;;;;;3.75;1.30;;;21.40;42.40;;;;;;4994977;28;20037;-55
2022/04/10 10:34:21;;;;;;;2.45;1.10;;;21.40;42.20;;;;;;4976515;28;20411;-57
2022/04/10 10:36:47;;;;;;;2.90;1.40;;;21.40;42.10;;;;;;4991200;28;20052;-57
2022/04/10 10:39:13;;;;;;;4.63;1.40;;;21.40;42.10;;;;;;4990470;28;20046;-56
2022/04/10 10:41:39;;;;;;;2.25;1.02;;;21.40;42.00;;;;;;4993297;28;20482;-59
2022/04/10 10:44:38;;;;;;;2.83;1.30;;;21.40;41.80;;;;;;4991344;28;20143;-57
2022/04/10 10:47:04;;;;;;;2.03;1.20;;;21.40;41.70;;;;;;4936969;28;20290;-58
2022/04/10 10:49:52;;;;;;;3.08;0.90;;;21.40;41.80;;;;;;4999382;28;20096;-57
2022/04/10 10:52:18;;;;;;;2.90;1.10;;;21.40;41.70;;;;;;4986815;28;20573;-59
2022/04/10 10:54:59;;;;;;;3.22;1.42;;;21.40;41.70;;;;;;4991619;28;20330;-57
2022/04/10 10:57:29;;;;;;;2.72;0.95;;;21.40;41.90;;;;;;4992576;28;20534;-57
2022/04/10 11:00:14;;;;;;;1.90;1.00;;;21.30;41.80;;;;;;4991952;28;20049;-57
2022/04/10 11:02:44;;;;;;;2.47;1.30;;;21.40;41.70;;;;;;4994802;28;20060;-57
2022/04/10 11:05:32;;;;;;;2.80;0.98;;;21.40;41.70;;;;;;4992187;28;20088;-56
2022/04/10 11:08:05;;;;;;;3.80;1.00;;;21.40;41.60;;;;;;4993575;28;20053;-57
2022/04/10 11:10:34;;;;;;;3.58;1.00;;;21.40;41.70;;;;;;4992899;28;20058;-57
2022/04/10 11:13:02;;;;;;;4.13;1.30;;;21.40;41.70;;;;;;4991479;28;20050;-57
2022/04/10 11:15:46;;;;;;;3.38;0.88;;;21.40;41.60;;;;;;4993242;28;20050;-58
2022/04/10 11:18:25;;;;;;;6.50;0.82;;;21.40;41.60;;;;;;4992656;28;20074;-61
2022/04/10 11:20:55;;;;;;;3.58;0.80;;;21.40;41.60;;;;;;4993329;28;20046;-61
2022/04/10 11:23:21;;;;;;;2.73;1.20;;;21.40;41.50;;;;;;4990248;28;21114;-60
2022/04/10 11:25:52;;;;;;;1.48;0.82;;;21.40;41.50;;;;;;4994170;28;20382;-60
2022/04/10 11:28:18;;;;;;;3.33;1.02;;;21.40;41.50;;;;;;4993835;28;20054;-61
2022/04/10 11:30:46;;;;;;;4.93;0.90;;;21.40;41.40;;;;;;4994734;28;20053;-60
2022/04/10 11:33:13;;;;;;;2.40;1.20;;;21.40;41.30;;;;;;4987200;28;20053;-61
2022/04/10 11:35:44;;;;;;;4.53;1.30;;;21.40;41.90;;;;;;4991616;28;20065;-60
2022/04/10 11:38:17;;;;;;;2.63;0.70;;;21.40;41.10;;;;;;4999401;28;20054;-62
2022/04/10 11:40:48;;;;;;;2.50;1.00;;;21.40;41.00;;;;;;4987845;28;20564;-60
2022/04/10 11:43:18;;;;;;;2.63;0.90;;;21.40;41.00;;;;;;4992041;28;20061;-61
2022/04/10 11:45:45;;;;;;;2.42;0.90;;;21.30;40.90;;;;;;4994392;28;20148;-60
2022/04/10 11:48:11;;;;;;;1.88;0.80;;;21.30;40.80;;;;;;4993545;28;20053;-61
2022/04/10 11:50:38;;;;;;;3.28;0.88;;;21.30;40.80;;;;;;4991696;28;20042;-60
2022/04/10 11:53:08;;;;;;;3.72;0.90;;;21.30;40.70;;;;;;4997437;28;20506;-61
2022/04/10 11:55:36;;;;;;;3.05;0.98;;;21.30;40.60;;;;;;4994975;28;20049;-60
2022/04/10 11:58:20;;;;;;;2.88;0.93;;;21.30;40.50;;;;;;4996460;28;20088;-60
2022/04/10 12:00:52;;;;;;;3.33;1.20;;;21.30;40.40;;;;;;4997721;28;20414;-60
2022/04/10 12:03:18;;;;;;;2.22;0.80;;;21.30;40.40;;;;;;4999269;28;20057;-61
2022/04/10 12:05:44;;;;;;;1.08;0.90;;;21.30;40.40;;;;;;4995285;28;20112;-61
2022/04/10 12:08:11;;;;;;;2.22;0.80;;;21.30;40.20;;;;;;4993082;28;20095;-64
2022/04/10 12:10:36;;;;;;;2.55;1.13;;;21.30;40.00;;;;;;4997296;28;20045;-62
2022/04/10 12:13:03;;;;;;;3.20;1.10;;;21.30;39.90;;;;;;4997963;28;20057;-62
2022/04/10 12:15:29;;;;;;;1.70;0.90;;;21.30;39.80;;;;;;4996588;28;20136;-61
2022/04/10 12:18:09;;;;;;;2.72;1.00;;;21.30;39.80;;;;;;4994182;28;20154;-61
2022/04/10 12:20:36;;;;;;;1.85;0.90;;;21.30;39.60;;;;;;4995630;28;20671;-63
2022/04/10 12:23:21;;;;;;;2.60;1.08;;;21.20;39.90;;;;;;4997048;28;20046;-63
2022/04/10 12:25:54;;;;;;;1.50;0.80;;;21.20;39.40;;;;;;4996839;28;20033;-63
2022/04/10 12:28:20;;;;;;;2.78;0.93;;;21.20;39.40;;;;;;4987136;28;20054;-65
2022/04/10 12:30:47;;;;;;;1.35;0.80;;;21.20;39.40;;;;;;4995808;28;20136;-61
2022/04/10 12:33:14;;;;;;;2.28;0.82;;;21.20;39.30;;;;;;4995372;28;20046;-62
2022/04/10 12:35:43;;;;;;;2.17;0.90;;;21.20;39.30;;;;;;4996358;28;20060;-64
2022/04/10 12:38:10;;;;;;;2.20;0.90;;;21.20;39.20;;;;;;4993880;28;20084;-60
2022/04/10 12:40:36;;;;;;;4.68;1.42;;;21.20;39.30;;;;;;4994517;28;20129;-61
2022/04/10 12:43:05;;;;;;;4.20;1.13;;;21.20;39.60;;;;;;4995197;28;20050;-61
2022/04/10 12:45:32;;;;;;;3.22;1.08;;;21.20;39.80;;;;;;4996084;28;20146;-62
2022/04/10 12:47:59;;;;;;;1.88;0.80;;;21.20;39.70;;;;;;4994834;28;20335;-61
2022/04/10 12:50:26;;;;;;;3.03;0.95;;;21.20;39.80;;;;;;4995318;28;20038;-61
2022/04/10 12:52:55;;;;;;;2.40;1.00;;;21.20;40.00;;;;;;4995606;28;20077;-62
2022/04/10 12:55:36;;;;;;;2.38;1.05;;;21.20;40.10;;;;;;4995170;28;20469;-63